Time;durP1;ratioP1;P1;durP2;ratioP2;P2;SDS_P1;SDS_P2;PMS_P1;PMS_P2;Temp;Humidity;BMP_temperature;BMP_pressure;BME280_temperature;BME280_humidity;BME280_pressure;Samples;Min_cycle;Max_cycle;Signal;HPM_P1;HPM_P2
2022/02/03 00:04:31;;;;;;;7.03;2.17;;;8.40;99.80;;;;;;5060053;28;20025;-49
2022/02/03 00:07:03;;;;;;;4.57;2.67;;;8.40;99.80;;;;;;5063618;28;20024;-49
2022/02/03 00:25:19;;;;;;;3.63;1.95;;;8.40;99.90;;;;;;5062457;28;20028;-49
2022/02/03 00:30:22;;;;;;;8.93;3.72;;;8.40;99.90;;;;;;5059192;28;20032;-49
2022/02/03 00:49:12;;;;;;;4.43;2.17;;;8.40;99.90;;;;;;5059513;28;20468;-49
2022/02/03 00:51:43;;;;;;;2.20;1.77;;;8.40;99.90;;;;;;5062169;28;20032;-49
2022/02/03 00:54:10;;;;;;;4.85;2.72;;;8.40;99.90;;;;;;5061035;28;20351;-49
2022/02/03 00:56:54;;;;;;;13.27;3.85;;;8.40;99.90;;;;;;5061285;28;20037;-49
2022/02/03 00:59:35;;;;;;;7.63;3.58;;;8.40;99.90;;;;;;5056869;28;20044;-49
2022/02/03 01:02:11;;;;;;;7.97;3.10;;;8.40;99.90;;;;;;5061442;28;20036;-49
2022/02/03 01:04:38;;;;;;;11.88;4.32;;;8.40;99.80;;;;;;5058822;28;20036;-49
2022/02/03 01:07:11;;;;;;;6.38;3.67;;;8.40;99.90;;;;;;5062388;28;20113;-50
2022/02/03 01:09:44;;;;;;;8.88;2.92;;;8.40;99.90;;;;;;5059074;28;20036;-49
2022/02/03 01:12:29;;;;;;;7.72;3.05;;;8.40;99.90;;;;;;5062647;28;20060;-49
2022/02/03 01:15:10;;;;;;;8.40;2.60;;;8.40;99.90;;;;;;5058623;28;20033;-50
2022/02/03 01:17:49;;;;;;;2.60;2.00;;;8.40;99.90;;;;;;5058924;28;20044;-49
2022/02/03 01:45:25;;;;;;;9.23;2.92;;;8.40;99.90;;;;;;5056214;28;20048;-49
2022/02/03 01:48:21;;;;;;;4.03;1.70;;;8.40;99.90;;;;;;5060750;28;20362;-49
2022/02/03 01:53:34;;;;;;;4.97;2.20;;;8.40;99.90;;;;;;5059332;28;20165;-49
2022/02/03 01:56:04;;;;;;;4.50;2.30;;;8.40;99.90;;;;;;5059907;28;20053;-49
2022/02/03 01:58:47;;;;;;;4.75;2.17;;;8.40;99.90;;;;;;5056166;28;20031;-49
2022/02/03 02:01:25;;;;;;;3.17;1.55;;;8.40;99.90;;;;;;5056228;28;20155;-49
2022/02/03 02:04:09;;;;;;;4.63;1.55;;;8.40;99.90;;;;;;5061377;28;20100;-49
2022/02/03 02:07:02;;;;;;;3.03;2.05;;;8.40;99.90;;;;;;5059165;28;20358;-49
2022/02/03 02:09:48;;;;;;;2.97;2.10;;;8.40;99.90;;;;;;5057153;28;20032;-49
2022/02/03 02:12:49;;;;;;;2.40;2.15;;;8.40;99.90;;;;;;5059476;28;20036;-49
2022/02/03 02:37:54;;;;;;;2.33;1.88;;;8.40;99.90;;;;;;5064161;28;20421;-49
2022/02/03 02:43:08;;;;;;;2.50;1.67;;;8.40;99.90;;;;;;5063338;28;20070;-49
2022/02/03 02:45:36;;;;;;;3.05;1.90;;;8.50;99.90;;;;;;5060806;28;20481;-49
2022/02/03 02:48:14;;;;;;;3.00;1.98;;;8.40;99.90;;;;;;5061898;28;20027;-49
2022/02/03 02:50:59;;;;;;;2.30;2.10;;;8.50;99.90;;;;;;5061852;28;20446;-49
2022/02/03 02:56:31;;;;;;;8.82;2.70;;;8.40;99.90;;;;;;5065104;28;20025;-50
2022/02/03 02:59:26;;;;;;;4.93;2.90;;;8.40;99.90;;;;;;5062195;28;20040;-49
2022/02/03 03:29:00;;;;;;;6.68;3.45;;;8.50;99.90;;;;;;5061038;28;20040;-49
2022/02/03 03:29:35;;;;;;;6.60;4.07;;;8.50;99.90;;;;;;5062813;28;20060;-49
2022/02/03 03:37:36;;;;;;;6.53;3.72;;;8.50;99.90;;;;;;5062080;28;20040;-49
2022/02/03 03:40:05;;;;;;;6.03;3.47;;;8.50;99.90;;;;;;5062311;28;20029;-49
2022/02/03 03:42:33;;;;;;;7.35;4.13;;;8.50;99.90;;;;;;5062015;28;20033;-49
2022/02/03 03:45:05;;;;;;;7.40;3.55;;;8.40;99.90;;;;;;5064396;28;20196;-49
2022/02/03 03:47:34;;;;;;;6.28;3.67;;;8.50;99.90;;;;;;5057721;28;20021;-49
2022/02/03 03:50:10;;;;;;;7.15;3.58;;;8.50;99.90;;;;;;5061220;28;20055;-49
2022/02/03 03:52:46;;;;;;;5.22;3.47;;;8.50;99.90;;;;;;5061495;28;20040;-49
2022/02/03 04:00:46;;;;;;;5.57;3.67;;;8.50;99.90;;;;;;5052660;28;20044;-49
2022/02/03 04:33:13;;;;;;;8.27;3.78;;;8.50;99.90;;;;;;5058779;28;20037;-50
2022/02/03 04:38:39;;;;;;;8.75;4.00;;;8.50;99.90;;;;;;5062116;28;20036;-49
2022/02/03 04:41:38;;;;;;;9.63;4.70;;;8.50;99.90;;;;;;5063029;28;20453;-49
2022/02/03 04:54:03;;;;;;;6.57;4.10;;;8.50;99.90;;;;;;5062467;28;20047;-49
2022/02/03 05:18:27;;;;;;;9.45;4.63;;;8.50;99.90;;;;;;5056886;28;20451;-49
2022/02/03 05:21:27;;;;;;;9.43;4.80;;;8.50;99.90;;;;;;5061056;28;20442;-49
2022/02/03 05:47:35;;;;;;;9.75;3.50;;;8.50;99.90;;;;;;5059009;28;20086;-49
2022/02/03 06:13:48;;;;;;;6.72;3.63;;;8.50;99.90;;;;;;5060664;28;20040;-49
2022/02/03 06:24:06;;;;;;;6.03;2.92;;;8.50;99.90;;;;;;5057627;28;20131;-49
2022/02/03 06:29:21;;;;;;;9.40;3.63;;;8.50;99.90;;;;;;5061351;28;20078;-49
2022/02/03 06:31:49;;;;;;;14.45;6.35;;;8.50;99.90;;;;;;5058583;28;20086;-49
2022/02/03 06:34:16;;;;;;;11.10;5.70;;;8.50;99.90;;;;;;5056646;28;20036;-49
2022/02/03 06:36:42;;;;;;;12.13;5.55;;;8.50;99.90;;;;;;5059073;28;20025;-49
2022/02/03 06:39:18;;;;;;;12.82;5.53;;;8.50;99.90;;;;;;5061414;28;20100;-49
2022/02/03 06:41:45;;;;;;;12.23;4.47;;;8.50;99.90;;;;;;5059691;28;20040;-49
2022/02/03 06:44:13;;;;;;;14.45;5.70;;;8.50;99.90;;;;;;5058214;28;20362;-49
2022/02/03 06:46:42;;;;;;;13.30;6.40;;;8.60;99.90;;;;;;5058981;28;20021;-49
2022/02/03 06:49:42;;;;;;;10.95;4.60;;;8.50;99.90;;;;;;5059217;28;20032;-49
2022/02/03 06:52:01;;;;;;;10.93;4.65;;;8.60;99.90;;;;;;5054917;28;20352;-49
2022/02/03 06:54:39;;;;;;;12.60;4.40;;;8.60;99.90;;;;;;5058981;28;20106;-49
2022/02/03 06:57:11;;;;;;;9.45;5.07;;;8.60;99.90;;;;;;5059027;28;20065;-49
2022/02/03 06:59:46;;;;;;;10.38;4.25;;;8.50;99.90;;;;;;5059528;28;20116;-49
2022/02/03 07:02:11;;;;;;;11.70;5.60;;;8.60;99.90;;;;;;5056521;28;20076;-49
2022/02/03 07:04:43;;;;;;;11.73;5.95;;;8.60;99.90;;;;;;5057722;28;20060;-49
2022/02/03 07:07:09;;;;;;;16.42;5.13;;;8.60;99.90;;;;;;5060794;28;20029;-49
2022/02/03 07:09:34;;;;;;;13.88;4.97;;;8.60;99.90;;;;;;5060716;28;20142;-49
2022/02/03 07:12:02;;;;;;;8.85;4.25;;;8.60;99.90;;;;;;5060895;28;20343;-49
2022/02/03 07:14:30;;;;;;;14.98;4.47;;;8.60;99.90;;;;;;5058867;28;20083;-49
2022/02/03 07:16:58;;;;;;;11.68;6.00;;;8.60;99.90;;;;;;5057295;28;20036;-49
2022/02/03 07:19:24;;;;;;;14.88;5.50;;;8.60;99.90;;;;;;5055165;28;20083;-49
2022/02/03 07:21:50;;;;;;;14.48;5.95;;;8.60;99.90;;;;;;5054350;28;20025;-49
2022/02/03 07:24:15;;;;;;;8.18;4.13;;;8.60;99.90;;;;;;5061998;28;20024;-49
2022/02/03 07:26:41;;;;;;;11.93;5.05;;;8.60;99.90;;;;;;5062852;28;20029;-49
2022/02/03 07:29:07;;;;;;;14.68;5.30;;;8.60;99.90;;;;;;5059932;28;20025;-49
2022/02/03 07:31:32;;;;;;;13.88;5.70;;;8.60;99.90;;;;;;5063111;28;20616;-49
2022/02/03 07:34:03;;;;;;;9.70;4.47;;;8.60;99.90;;;;;;5060121;28;20059;-49
2022/02/03 07:36:29;;;;;;;8.52;3.72;;;8.60;99.90;;;;;;5061504;28;20028;-49
2022/02/03 07:38:57;;;;;;;8.68;4.50;;;8.60;99.90;;;;;;5071053;28;20400;-49
2022/02/03 07:41:22;;;;;;;21.75;5.40;;;8.60;99.90;;;;;;5066620;28;20115;-49
2022/02/03 07:43:48;;;;;;;7.78;4.35;;;8.60;99.90;;;;;;5062185;28;20112;-49
2022/02/03 07:46:14;;;;;;;14.85;5.40;;;8.60;99.90;;;;;;5063531;28;20437;-49
2022/02/03 07:48:40;;;;;;;13.75;6.25;;;8.60;99.90;;;;;;5056856;28;20021;-49
2022/02/03 07:51:05;;;;;;;19.77;4.80;;;8.60;99.90;;;;;;5061481;28;20041;-49
2022/02/03 07:53:31;;;;;;;12.45;5.25;;;8.60;99.90;;;;;;5062886;28;20024;-49
2022/02/03 07:55:57;;;;;;;13.73;5.75;;;8.60;99.90;;;;;;5065019;28;20071;-49
2022/02/03 07:58:22;;;;;;;10.32;5.07;;;8.60;99.90;;;;;;5063665;28;20020;-49
2022/02/03 08:00:48;;;;;;;14.95;6.43;;;8.60;99.90;;;;;;5063827;28;20025;-49
2022/02/03 08:03:15;;;;;;;14.52;5.45;;;8.60;99.90;;;;;;5055967;28;20094;-49
2022/02/03 08:05:44;;;;;;;14.32;6.03;;;8.60;99.90;;;;;;5057863;28;20028;-49
2022/02/03 08:10:41;;;;;;;12.57;5.32;;;8.60;99.90;;;;;;5064289;28;20044;-49
2022/02/03 08:13:09;;;;;;;6.90;3.72;;;8.70;99.90;;;;;;5062357;28;20075;-49
2022/02/03 08:15:38;;;;;;;14.57;5.40;;;8.70;99.90;;;;;;5061301;28;20040;-49
2022/02/03 08:18:08;;;;;;;21.42;4.80;;;8.70;99.90;;;;;;5062005;28;20036;-49
2022/02/03 08:20:34;;;;;;;10.65;3.47;;;8.70;99.90;;;;;;5060056;28;20059;-49
2022/02/03 08:25:34;;;;;;;13.43;5.38;;;8.70;99.90;;;;;;5060908;28;20460;-49
2022/02/03 08:30:58;;;;;;;10.15;3.65;;;8.70;99.90;;;;;;5062443;28;20040;-49
2022/02/03 08:33:24;;;;;;;10.60;4.07;;;8.70;99.90;;;;;;5058952;28;20167;-49
2022/02/03 08:35:51;;;;;;;8.80;3.63;;;8.70;99.90;;;;;;5059340;28;20104;-49
2022/02/03 08:38:28;;;;;;;16.83;5.60;;;8.70;99.90;;;;;;5063468;28;20245;-49
2022/02/03 08:43:21;;;;;;;3.25;1.80;;;8.70;99.90;;;;;;5059334;28;20128;-49
2022/02/03 08:45:47;;;;;;;14.68;5.40;;;8.70;99.90;;;;;;5058793;28;20452;-49
2022/02/03 08:48:14;;;;;;;8.85;3.22;;;8.70;99.90;;;;;;5059418;28;20029;-49
2022/02/03 08:50:41;;;;;;;6.90;3.83;;;8.70;99.90;;;;;;5057608;28;20377;-50
2022/02/03 08:53:19;;;;;;;9.30;3.75;;;8.70;99.90;;;;;;5059960;28;20100;-50
2022/02/03 09:36:34;;;;;;;8.10;3.65;;;8.80;99.90;;;;;;5056626;28;20048;-50
2022/02/03 09:55:55;;;;;;;4.75;2.67;;;8.80;99.90;;;;;;5084567;28;20299;-50
2022/02/03 09:58:24;;;;;;;3.35;1.73;;;8.80;99.90;;;;;;5086605;28;20487;-49
2022/02/03 10:03:48;;;;;;;3.45;2.40;;;8.80;99.90;;;;;;5085165;28;20104;-49
2022/02/03 10:06:18;;;;;;;4.60;2.25;;;8.80;99.90;;;;;;5085836;28;21096;-49
2022/02/03 10:08:49;;;;;;;17.10;2.97;;;8.80;99.90;;;;;;5083536;28;20021;-49
2022/02/03 10:11:22;;;;;;;4.85;2.15;;;8.80;99.90;;;;;;5078830;28;20031;-49
2022/02/03 10:13:50;;;;;;;7.00;3.03;;;8.80;99.90;;;;;;5075866;28;20035;-49
2022/02/03 10:16:19;;;;;;;5.10;3.13;;;8.80;99.90;;;;;;5078205;28;20031;-49
2022/02/03 10:18:46;;;;;;;7.03;3.53;;;8.80;99.90;;;;;;5078699;28;20116;-49
2022/02/03 10:21:17;;;;;;;6.70;2.47;;;8.90;99.90;;;;;;5075527;28;20063;-49
2022/02/03 10:24:03;;;;;;;5.45;2.65;;;8.80;99.90;;;;;;5076538;28;20457;-49
2022/02/03 10:26:35;;;;;;;6.32;3.17;;;8.80;99.90;;;;;;5071776;28;20186;-49
2022/02/03 10:29:02;;;;;;;7.40;3.03;;;8.80;99.90;;;;;;5060283;28;20031;-49
2022/02/03 10:31:38;;;;;;;4.90;2.03;;;8.90;99.90;;;;;;5060644;28;20032;-49
2022/02/03 10:34:09;;;;;;;4.38;2.72;;;8.90;99.90;;;;;;5058527;28;20033;-49
2022/02/03 10:36:43;;;;;;;4.93;2.75;;;8.90;99.90;;;;;;5057492;28;20016;-49
2022/02/03 10:39:43;;;;;;;3.45;2.28;;;8.90;99.90;;;;;;5060757;28;20033;-49
2022/02/03 10:59:43;;;;;;;6.82;2.00;;;8.90;99.90;;;;;;5058892;28;20095;-49
2022/02/03 11:05:09;;;;;;;5.32;2.75;;;8.90;99.90;;;;;;5057274;28;20051;-49
2022/02/03 11:07:26;;;;;;;3.05;2.08;;;8.90;99.90;;;;;;5061795;28;20033;-49
2022/02/03 11:10:02;;;;;;;4.07;2.72;;;8.90;99.90;;;;;;5064513;28;20115;-49
2022/02/03 11:12:30;;;;;;;2.28;1.35;;;8.90;99.90;;;;;;5064285;28;20028;-49
2022/02/03 11:14:58;;;;;;;2.78;1.55;;;9.00;99.90;;;;;;5061232;28;20041;-49
2022/02/03 11:17:27;;;;;;;2.45;2.03;;;9.00;99.90;;;;;;5059849;28;20214;-49
2022/02/03 11:19:57;;;;;;;3.10;1.73;;;9.00;99.90;;;;;;5057485;28;20041;-49
2022/02/03 11:22:30;;;;;;;4.57;2.70;;;9.00;99.90;;;;;;5064765;28;20052;-49
2022/02/03 11:25:17;;;;;;;2.38;1.63;;;9.00;99.90;;;;;;5060718;28;20082;-49
2022/02/03 11:28:11;;;;;;;2.97;1.67;;;9.00;99.90;;;;;;5063970;28;20041;-49
2022/02/03 11:40:14;;;;;;;3.72;2.78;;;9.10;99.90;;;;;;5061682;28;20468;-49
2022/02/03 11:42:08;;;;;;;5.15;2.85;;;9.10;99.90;;;;;;5051779;28;20040;-49
2022/02/03 11:45:38;;;;;;;5.53;2.53;;;9.10;99.90;;;;;;5063842;28;20028;-49
2022/02/03 12:01:15;;;;;;;3.78;2.05;;;9.10;99.90;;;;;;5063516;28;20028;-49
2022/02/03 12:03:25;;;;;;;3.40;1.75;;;9.10;99.90;;;;;;5063512;28;20386;-49
2022/02/03 12:06:38;;;;;;;1.35;0.85;;;9.10;99.90;;;;;;5053419;28;20040;-49
2022/02/03 12:24:18;;;;;;;2.17;1.83;;;9.20;99.90;;;;;;5062048;28;20045;-49
2022/02/03 12:26:30;;;;;;;4.45;2.38;;;9.20;99.90;;;;;;5063247;28;20041;-49
2022/02/03 12:29:01;;;;;;;3.17;1.75;;;9.20;99.90;;;;;;5061131;28;20354;-49
2022/02/03 12:37:00;;;;;;;3.88;2.47;;;9.20;99.90;;;;;;5057147;28;20051;-49
2022/02/03 12:39:50;;;;;;;4.32;2.40;;;9.20;99.90;;;;;;5063295;28;20028;-49
2022/02/03 12:42:32;;;;;;;4.37;2.93;;;9.20;99.90;;;;;;5061216;28;20041;-49
2022/02/03 12:45:15;;;;;;;0.30;0.30;;;9.30;99.90;;;;;;5061922;28;20029;-49
2022/02/03 12:47:44;;;;;;;0.85;0.57;;;9.30;99.90;;;;;;5061489;28;20028;-49
2022/02/03 12:50:21;;;;;;;4.80;1.77;;;9.30;99.90;;;;;;5060280;28;20394;-49
2022/02/03 12:52:47;;;;;;;5.00;1.58;;;9.30;99.90;;;;;;5057965;28;20029;-49
2022/02/03 12:55:26;;;;;;;1.08;0.98;;;9.30;99.90;;;;;;5060848;28;20453;-49
2022/02/03 12:57:51;;;;;;;4.20;1.77;;;9.30;99.90;;;;;;5060870;28;20055;-49
2022/02/03 13:02:57;;;;;;;2.83;2.05;;;9.30;99.90;;;;;;5059421;28;20454;-49
2022/02/03 13:05:36;;;;;;;5.13;3.28;;;9.30;99.90;;;;;;5057677;28;20468;-49
2022/02/03 13:08:05;;;;;;;2.95;1.75;;;9.30;99.90;;;;;;5061537;28;20093;-49
2022/02/03 13:10:33;;;;;;;4.68;2.22;;;9.30;99.90;;;;;;5061872;28;20476;-49
2022/02/03 13:13:38;;;;;;;10.45;2.65;;;9.30;99.90;;;;;;5061976;28;20040;-50
2022/02/03 13:16:11;;;;;;;4.30;2.25;;;9.30;99.90;;;;;;5060264;28;20029;-50
2022/02/03 13:18:45;;;;;;;0.70;0.70;;;9.30;99.90;;;;;;5064598;28;20039;-49
2022/02/03 13:21:31;;;;;;;2.60;2.05;;;9.30;99.90;;;;;;5058300;28;20384;-49
2022/02/03 13:24:14;;;;;;;3.35;1.90;;;9.30;99.90;;;;;;5063222;28;20045;-49
2022/02/03 13:26:39;;;;;;;3.47;2.10;;;9.40;99.90;;;;;;5061788;28;20021;-49
2022/02/03 13:29:08;;;;;;;4.65;1.85;;;9.40;99.90;;;;;;5063936;28;20047;-49
2022/02/03 13:31:54;;;;;;;2.53;1.83;;;9.40;99.90;;;;;;5060351;28;20020;-49
2022/02/03 13:34:43;;;;;;;3.25;2.33;;;9.40;99.90;;;;;;5062308;28;20025;-49
2022/02/03 13:37:33;;;;;;;3.60;1.88;;;9.40;99.90;;;;;;5054080;28;20135;-49
2022/02/03 13:40:03;;;;;;;2.20;1.65;;;9.30;99.90;;;;;;5061919;28;20466;-49
2022/02/03 13:42:30;;;;;;;2.60;1.50;;;9.40;99.90;;;;;;5059005;28;20036;-49
2022/02/03 13:45:05;;;;;;;2.72;1.73;;;9.40;99.90;;;;;;5060768;28;20056;-49
2022/02/03 13:47:35;;;;;;;6.57;2.33;;;9.40;99.90;;;;;;5059968;28;20474;-49
2022/02/03 13:50:20;;;;;;;2.83;2.00;;;9.40;99.90;;;;;;5059922;28;20075;-49
2022/02/03 14:17:53;;;;;;;2.55;1.95;;;9.40;99.90;;;;;;5060899;28;20446;-49
2022/02/03 14:23:25;;;;;;;3.72;2.22;;;9.40;99.90;;;;;;5053284;28;20037;-49
2022/02/03 14:28:26;;;;;;;3.25;2.22;;;9.40;99.90;;;;;;5062105;28;20600;-49
2022/02/03 14:30:55;;;;;;;2.45;2.10;;;9.40;99.90;;;;;;5055215;28;20029;-49
2022/02/03 14:33:30;;;;;;;2.67;2.03;;;9.40;99.90;;;;;;5062922;28;20290;-49
2022/02/03 14:36:06;;;;;;;3.08;1.83;;;9.40;99.90;;;;;;5063184;28;20112;-49
2022/02/03 14:38:40;;;;;;;5.25;2.28;;;9.40;99.90;;;;;;5064962;28;20020;-49
2022/02/03 14:41:13;;;;;;;3.88;2.33;;;9.40;99.90;;;;;;5066158;28;20017;-49
2022/02/03 14:43:40;;;;;;;4.80;2.58;;;9.40;99.90;;;;;;5065557;28;20404;-49
2022/02/03 14:46:11;;;;;;;2.00;1.77;;;9.40;99.90;;;;;;5066503;28;20441;-49
2022/02/03 14:48:38;;;;;;;3.90;2.53;;;9.40;99.90;;;;;;5063552;28;20035;-49
2022/02/03 14:51:06;;;;;;;2.97;1.92;;;9.40;99.90;;;;;;5065634;28;20024;-49
2022/02/03 14:53:49;;;;;;;3.35;2.28;;;9.40;99.90;;;;;;5062962;28;20108;-50
2022/02/03 14:58:59;;;;;;;4.72;2.80;;;9.40;99.90;;;;;;5062432;28;20244;-49
2022/02/03 15:01:25;;;;;;;6.60;2.78;;;9.40;99.90;;;;;;5061355;28;20410;-49
2022/02/03 15:03:55;;;;;;;7.38;2.78;;;9.40;99.90;;;;;;5063125;28;20037;-50
2022/02/03 15:06:23;;;;;;;6.18;3.25;;;9.40;99.90;;;;;;5061189;28;20462;-49
2022/02/03 15:09:13;;;;;;;3.70;2.28;;;9.30;99.90;;;;;;5060744;28;20044;-49
2022/02/03 15:14:11;;;;;;;5.93;2.00;;;9.40;99.90;;;;;;5064055;28;20421;-49
2022/02/03 15:16:36;;;;;;;4.88;2.58;;;9.40;99.90;;;;;;5062573;28;20443;-49
2022/02/03 15:19:02;;;;;;;3.58;2.00;;;9.40;99.90;;;;;;5064702;28;20035;-49
2022/02/03 15:21:28;;;;;;;3.90;2.53;;;9.40;99.90;;;;;;5061456;28;20025;-49
2022/02/03 15:23:53;;;;;;;5.57;3.08;;;9.40;99.90;;;;;;5061518;28;20434;-49
2022/02/03 15:26:21;;;;;;;6.35;2.75;;;9.40;99.90;;;;;;5063369;28;20428;-49
2022/02/03 15:28:47;;;;;;;6.90;2.75;;;9.40;99.90;;;;;;5062513;28;20362;-49
2022/02/03 15:31:13;;;;;;;4.43;2.70;;;9.40;99.90;;;;;;5064347;28;20426;-49
2022/02/03 15:33:43;;;;;;;3.45;2.55;;;9.40;99.90;;;;;;5063426;28;20332;-49
2022/02/03 15:36:12;;;;;;;4.88;2.45;;;9.40;99.90;;;;;;5062288;28;20114;-49
2022/02/03 15:38:44;;;;;;;4.68;1.95;;;9.40;99.90;;;;;;5058622;28;20048;-49
2022/02/03 15:41:19;;;;;;;3.90;2.08;;;9.40;99.90;;;;;;5064197;28;20033;-49
2022/02/03 15:43:45;;;;;;;5.82;3.15;;;9.30;99.90;;;;;;5062970;28;20462;-49
2022/02/03 15:46:13;;;;;;;6.22;3.22;;;9.30;99.90;;;;;;5061805;28;20028;-50
2022/02/03 15:48:46;;;;;;;4.38;2.85;;;9.40;99.90;;;;;;5063314;28;20081;-49
2022/02/03 16:01:40;;;;;;;5.38;3.30;;;9.30;99.90;;;;;;5061332;28;20511;-49
2022/02/03 16:04:23;;;;;;;7.20;3.38;;;9.30;99.90;;;;;;5061057;28;20075;-49
2022/02/03 16:17:30;;;;;;;6.10;3.53;;;9.30;99.90;;;;;;5062953;28;20028;-49
2022/02/03 16:22:45;;;;;;;7.05;2.92;;;9.30;99.90;;;;;;5061439;28;20449;-49
2022/02/03 16:54:57;;;;;;;4.68;2.72;;;9.30;99.90;;;;;;5058333;28;20018;-50
2022/02/03 16:57:25;;;;;;;4.70;2.42;;;9.20;99.90;;;;;;5059344;28;20362;-49
2022/02/03 16:59:59;;;;;;;3.80;2.15;;;9.20;99.90;;;;;;5060924;28;20065;-49
2022/02/03 17:02:25;;;;;;;5.75;2.13;;;9.20;99.90;;;;;;5060248;28;20117;-49
2022/02/03 17:04:52;;;;;;;2.90;1.95;;;9.20;99.90;;;;;;5056837;28;20148;-50
2022/02/03 17:07:18;;;;;;;3.08;1.88;;;9.20;99.90;;;;;;5062627;28;20623;-49
2022/02/03 17:09:44;;;;;;;4.47;2.00;;;9.20;99.90;;;;;;5060241;28;20021;-49
2022/02/03 17:12:10;;;;;;;2.97;1.63;;;9.20;99.90;;;;;;5059745;28;20358;-49
2022/02/03 17:14:36;;;;;;;3.42;1.63;;;9.20;99.90;;;;;;5062269;28;20362;-49
2022/02/03 17:17:02;;;;;;;3.25;2.13;;;9.20;99.90;;;;;;5060502;28;20115;-49
2022/02/03 17:19:27;;;;;;;1.75;1.23;;;9.20;99.90;;;;;;5069725;28;20036;-49
2022/02/03 17:21:53;;;;;;;1.83;1.52;;;9.20;99.90;;;;;;5059418;28;20028;-49
2022/02/03 17:24:18;;;;;;;3.80;1.77;;;9.20;99.90;;;;;;5056913;28;20040;-49
2022/02/03 17:26:57;;;;;;;2.72;1.65;;;9.20;99.90;;;;;;5053775;28;20020;-49
2022/02/03 17:31:58;;;;;;;6.57;2.10;;;9.20;99.90;;;;;;5063404;28;20044;-49
2022/02/03 17:52:14;;;;;;;4.32;1.90;;;9.20;99.90;;;;;;5058671;28;20122;-49
2022/02/03 18:27:25;;;;;;;3.08;1.40;;;9.10;99.90;;;;;;5060766;28;20063;-49
2022/02/03 18:34:54;;;;;;;5.00;2.58;;;9.10;99.90;;;;;;5051621;28;20515;-49
2022/02/03 18:37:39;;;;;;;6.18;1.90;;;9.10;99.90;;;;;;5060576;28;20492;-49
2022/02/03 18:53:20;;;;;;;3.60;2.17;;;9.10;99.90;;;;;;5056980;28;20033;-50
2022/02/03 18:58:27;;;;;;;5.57;3.03;;;9.10;99.90;;;;;;5059652;28;20112;-49
2022/02/03 19:09:27;;;;;;;4.40;1.83;;;9.00;99.90;;;;;;5064549;28;20036;-49
2022/02/03 19:12:51;;;;;;;6.03;2.35;;;9.00;99.90;;;;;;5053747;28;20081;-49
2022/02/03 20:08:03;;;;;;;5.00;2.97;;;9.00;99.90;;;;;;5062006;28;20029;-49
2022/02/03 20:10:37;;;;;;;5.03;2.90;;;9.00;99.90;;;;;;5061490;28;20446;-49
2022/02/03 20:13:03;;;;;;;7.22;3.45;;;9.00;99.90;;;;;;5063840;28;20063;-49
2022/02/03 20:15:29;;;;;;;6.15;3.00;;;9.00;99.90;;;;;;5063000;28;20032;-49
2022/02/03 20:17:55;;;;;;;8.55;3.55;;;9.00;99.90;;;;;;5062534;28;20403;-49
2022/02/03 20:20:21;;;;;;;8.43;2.85;;;9.00;99.90;;;;;;5062224;28;20973;-49
2022/02/03 20:22:48;;;;;;;7.22;3.70;;;9.00;99.90;;;;;;5060269;28;20412;-49
2022/02/03 20:25:14;;;;;;;5.22;3.20;;;9.00;99.90;;;;;;5063013;28;20035;-49
2022/02/03 20:27:40;;;;;;;5.07;2.85;;;9.00;99.90;;;;;;5060477;28;20064;-49
2022/02/03 20:30:08;;;;;;;5.93;3.33;;;9.00;99.90;;;;;;5063325;28;20056;-49
2022/02/03 20:32:34;;;;;;;6.03;2.35;;;9.00;99.90;;;;;;5064608;28;20024;-49
2022/02/03 20:35:02;;;;;;;6.70;3.17;;;9.00;99.90;;;;;;5062615;28;20067;-49
2022/02/03 20:37:28;;;;;;;6.18;3.25;;;9.00;99.90;;;;;;5057799;28;20025;-49
2022/02/03 20:39:53;;;;;;;4.57;2.58;;;9.00;99.90;;;;;;5061129;28;20036;-49
2022/02/03 20:42:19;;;;;;;4.40;3.00;;;8.90;99.90;;;;;;5061283;28;20064;-49
2022/02/03 20:44:46;;;;;;;8.13;3.30;;;9.00;99.90;;;;;;5059931;28;20277;-49
2022/02/03 20:47:13;;;;;;;6.05;3.20;;;9.00;99.90;;;;;;5061019;28;20032;-49
2022/02/03 20:49:39;;;;;;;11.23;2.88;;;8.90;99.90;;;;;;5060570;28;20456;-49
2022/02/03 20:52:05;;;;;;;6.15;3.53;;;9.00;99.90;;;;;;5057624;28;20021;-49
2022/02/03 20:54:30;;;;;;;5.95;2.50;;;9.00;99.90;;;;;;5058577;28;20036;-49
2022/02/03 20:56:57;;;;;;;10.25;3.65;;;8.90;99.90;;;;;;5059001;28;20092;-49
2022/02/03 20:59:31;;;;;;;5.10;3.50;;;8.90;99.90;;;;;;5059423;28;20037;-49
2022/02/03 21:02:00;;;;;;;5.05;2.97;;;9.00;99.90;;;;;;5059286;28;20089;-49
2022/02/03 21:04:34;;;;;;;11.57;3.93;;;8.90;99.90;;;;;;5059230;28;20037;-49
2022/02/03 21:06:59;;;;;;;5.55;3.47;;;8.90;99.90;;;;;;5062606;28;20365;-49
2022/02/03 21:09:25;;;;;;;9.20;3.90;;;8.90;99.90;;;;;;5058906;28;20021;-49
2022/02/03 21:11:51;;;;;;;6.63;2.95;;;8.90;99.90;;;;;;5057422;28;20484;-49
2022/02/03 21:14:17;;;;;;;8.13;3.75;;;8.90;99.90;;;;;;5061787;28;20033;-49
2022/02/03 21:16:43;;;;;;;9.48;4.00;;;8.90;99.90;;;;;;5056968;28;20017;-49
2022/02/03 21:19:10;;;;;;;14.07;3.67;;;8.90;99.90;;;;;;5060578;28;20090;-49
2022/02/03 21:21:39;;;;;;;9.35;4.25;;;8.90;99.90;;;;;;5061546;28;20760;-49
2022/02/03 21:24:05;;;;;;;8.35;3.40;;;8.90;99.90;;;;;;5061714;28;20094;-49
2022/02/03 21:26:37;;;;;;;6.28;3.10;;;8.90;99.90;;;;;;5056097;28;20021;-49
2022/02/03 21:29:03;;;;;;;5.65;3.10;;;8.90;99.90;;;;;;5057539;28;20086;-49
2022/02/03 21:31:29;;;;;;;4.88;2.40;;;8.90;99.90;;;;;;5059270;28;20097;-49
2022/02/03 21:33:56;;;;;;;4.05;2.80;;;8.90;99.90;;;;;;5061998;28;20327;-49
2022/02/03 21:36:24;;;;;;;8.90;3.80;;;8.90;99.90;;;;;;5055403;28;20377;-49
2022/02/03 21:38:50;;;;;;;6.65;3.40;;;8.90;99.90;;;;;;5059755;28;20025;-49
2022/02/03 21:41:17;;;;;;;5.57;3.67;;;8.90;99.90;;;;;;5054614;28;20547;-49
2022/02/03 21:43:44;;;;;;;7.40;3.70;;;8.90;99.90;;;;;;5058756;28;20433;-49
2022/02/03 21:46:10;;;;;;;5.85;3.97;;;8.90;99.90;;;;;;5060360;28;20021;-49
2022/02/03 21:48:38;;;;;;;8.65;4.68;;;8.90;99.90;;;;;;5060275;28;20064;-49
2022/02/03 21:51:05;;;;;;;8.52;3.55;;;8.90;99.90;;;;;;5062619;28;20029;-49
2022/02/03 21:53:33;;;;;;;9.68;4.00;;;8.90;99.90;;;;;;5059608;28;20033;-49
2022/02/03 21:55:59;;;;;;;6.95;3.83;;;8.90;99.90;;;;;;5056017;28;20319;-49
2022/02/03 21:58:25;;;;;;;6.40;3.17;;;8.80;99.90;;;;;;5057018;28;20021;-49
2022/02/03 22:00:52;;;;;;;5.35;3.20;;;8.90;99.90;;;;;;5060434;28;20025;-49
2022/02/03 22:03:18;;;;;;;8.80;3.95;;;8.90;99.90;;;;;;5061578;28;20063;-49
2022/02/03 22:05:43;;;;;;;8.77;3.80;;;8.90;99.90;;;;;;5056375;28;20033;-49
2022/02/03 22:08:09;;;;;;;5.72;3.50;;;8.90;99.90;;;;;;5059740;28;20025;-49
2022/02/03 22:10:35;;;;;;;4.97;3.00;;;8.90;99.90;;;;;;5057975;28;20290;-49
2022/02/03 22:13:00;;;;;;;5.25;2.90;;;8.90;99.90;;;;;;5059961;28;20450;-49
2022/02/03 22:15:28;;;;;;;10.30;5.15;;;8.80;99.90;;;;;;5059411;28;20021;-49
2022/02/03 22:17:54;;;;;;;12.25;4.95;;;8.90;99.90;;;;;;5061538;28;20043;-49
2022/02/03 22:20:27;;;;;;;9.18;4.45;;;8.90;99.90;;;;;;5061414;28;20021;-49
2022/02/03 22:23:36;;;;;;;6.85;4.32;;;8.80;99.90;;;;;;5058989;28;20328;-49
2022/02/03 22:26:11;;;;;;;14.80;5.05;;;8.90;99.90;;;;;;5055798;28;20040;-49
2022/02/03 22:49:37;;;;;;;5.07;2.25;;;8.80;99.90;;;;;;5059571;28;20065;-49
2022/02/03 22:52:04;;;;;;;6.93;3.45;;;8.80;99.90;;;;;;5059247;28;20032;-49
2022/02/03 22:54:30;;;;;;;5.35;3.03;;;8.80;99.90;;;;;;5057311;28;20025;-50
2022/02/03 22:56:57;;;;;;;5.82;3.13;;;8.80;99.90;;;;;;5059949;28;20036;-49
2022/02/03 23:02:07;;;;;;;6.38;3.17;;;8.80;99.90;;;;;;5064800;28;20385;-49
2022/02/03 23:04:33;;;;;;;6.53;3.13;;;8.80;99.90;;;;;;5061506;28;20029;-49
2022/02/03 23:10:00;;;;;;;5.93;2.95;;;8.80;99.90;;;;;;5063683;28;20033;-49
2022/02/03 23:17:45;;;;;;;7.05;2.55;;;8.80;99.90;;;;;;5064831;28;20389;-49
2022/02/03 23:20:20;;;;;;;5.55;2.80;;;8.80;99.90;;;;;;5064117;28;20021;-49
2022/02/03 23:22:46;;;;;;;5.03;3.13;;;8.80;99.90;;;;;;5059243;28;20533;-49
2022/02/03 23:25:16;;;;;;;9.43;3.05;;;8.80;99.90;;;;;;5060577;28;20116;-49
2022/02/03 23:30:21;;;;;;;8.10;2.50;;;8.80;99.90;;;;;;5062652;28;20037;-49
2022/02/03 23:32:47;;;;;;;8.18;2.40;;;8.80;99.90;;;;;;5062623;28;20462;-49
2022/02/03 23:35:20;;;;;;;5.75;2.42;;;8.80;99.90;;;;;;5065070;28;20449;-49
2022/02/03 23:37:53;;;;;;;5.07;2.47;;;8.80;99.90;;;;;;5061545;28;20509;-49
2022/02/03 23:40:27;;;;;;;7.28;2.67;;;8.80;99.90;;;;;;5062131;28;20033;-49
